Time;durP1;ratioP1;P1;durP2;ratioP2;P2;SDS_P1;SDS_P2;PMS_P1;PMS_P2;Temp;Humidity;BMP_temperature;BMP_pressure;BME280_temperature;BME280_humidity;BME280_pressure;Samples;Min_cycle;Max_cycle;Signal;HPM_P1;HPM_P2
2023/12/26 00:01:45;;;;;;;1999.90;999.90;;;11.70;99.90;;;;;;5012821;28;20187;-74
2023/12/26 00:04:11;;;;;;;1999.90;999.90;;;11.70;99.90;;;;;;5012805;28;20173;-74
2023/12/26 00:06:38;;;;;;;1999.90;999.90;;;11.70;99.90;;;;;;5012969;28;20411;-73
2023/12/26 00:09:04;;;;;;;1999.90;999.90;;;11.70;99.90;;;;;;5012846;28;20443;-73
2023/12/26 00:11:30;;;;;;;1999.90;999.90;;;11.70;99.90;;;;;;5012598;28;20557;-73
2023/12/26 00:13:56;;;;;;;1999.90;999.90;;;11.70;99.90;;;;;;5012527;28;20411;-74
2023/12/26 00:16:21;;;;;;;1999.90;999.90;;;11.70;99.90;;;;;;5012675;28;20898;-73
2023/12/26 00:18:47;;;;;;;1999.90;999.90;;;11.70;99.90;;;;;;5012605;28;20254;-72
2023/12/26 00:21:13;;;;;;;1999.90;999.90;;;11.70;99.90;;;;;;5012251;28;20207;-73
2023/12/26 00:23:38;;;;;;;1999.90;999.90;;;11.70;99.90;;;;;;5012473;28;20172;-75
2023/12/26 00:26:04;;;;;;;1999.90;999.90;;;11.60;99.90;;;;;;5011281;28;20184;-73
2023/12/26 00:28:30;;;;;;;1999.90;999.90;;;11.60;99.90;;;;;;5012529;28;20196;-73
2023/12/26 00:30:56;;;;;;;1999.90;999.90;;;11.60;99.90;;;;;;5012233;28;20223;-74
2023/12/26 00:33:21;;;;;;;1999.90;999.90;;;11.60;99.90;;;;;;5012356;28;20654;-73
2023/12/26 00:35:47;;;;;;;1999.90;999.90;;;11.60;99.90;;;;;;5012344;28;20200;-73
2023/12/26 00:38:12;;;;;;;1999.90;999.90;;;11.60;99.90;;;;;;5012391;28;20172;-73
2023/12/26 00:40:41;;;;;;;1999.90;999.90;;;11.60;99.90;;;;;;5012025;28;20179;-73
2023/12/26 00:43:07;;;;;;;1999.90;999.90;;;11.60;99.90;;;;;;5012270;28;20168;-73
2023/12/26 00:45:33;;;;;;;1999.90;999.90;;;11.60;99.90;;;;;;5012376;28;20410;-72
2023/12/26 00:47:58;;;;;;;1999.90;999.90;;;11.50;99.90;;;;;;5012316;28;20465;-74
2023/12/26 00:50:24;;;;;;;1999.90;999.90;;;11.50;99.90;;;;;;5012136;28;20164;-72
2023/12/26 00:52:50;;;;;;;1999.90;999.90;;;11.60;99.90;;;;;;5012442;28;20225;-73
2023/12/26 00:55:15;;;;;;;1999.90;999.90;;;11.60;99.90;;;;;;5012033;28;20291;-73
2023/12/26 00:57:41;;;;;;;1999.90;999.90;;;11.60;99.90;;;;;;5012156;28;20164;-74
2023/12/26 01:00:07;;;;;;;1999.90;999.90;;;11.50;99.90;;;;;;5026195;28;20179;-73
2023/12/26 01:02:33;;;;;;;1999.90;999.90;;;11.50;99.90;;;;;;5031516;28;20187;-73
2023/12/26 01:04:59;;;;;;;1999.90;999.90;;;11.50;99.90;;;;;;5031774;28;20502;-75
2023/12/26 01:07:25;;;;;;;1999.90;999.90;;;11.40;99.90;;;;;;5031776;28;20188;-72
2023/12/26 01:09:51;;;;;;;1999.90;999.90;;;11.40;99.90;;;;;;5031912;28;20174;-73
2023/12/26 01:12:17;;;;;;;1999.90;999.90;;;11.40;99.90;;;;;;5035475;28;20194;-73
2023/12/26 01:14:42;;;;;;;1999.90;999.90;;;11.30;99.90;;;;;;5035667;28;20509;-73
2023/12/26 01:17:09;;;;;;;1999.90;999.90;;;11.30;99.90;;;;;;5035772;28;20444;-73
2023/12/26 01:19:34;;;;;;;1999.90;999.90;;;11.30;99.90;;;;;;5035710;28;20167;-72
2023/12/26 01:22:00;;;;;;;1999.90;999.90;;;11.30;99.90;;;;;;5035226;28;21056;-72
2023/12/26 01:24:25;;;;;;;1999.90;999.90;;;11.30;99.90;;;;;;5035684;28;20175;-73
2023/12/26 01:26:51;;;;;;;1999.90;999.90;;;11.30;99.90;;;;;;5035517;28;20175;-73
2023/12/26 01:29:17;;;;;;;1999.90;999.90;;;11.30;99.90;;;;;;5035513;28;20761;-72
2023/12/26 01:31:42;;;;;;;1999.90;999.90;;;11.30;99.90;;;;;;5035255;28;20610;-72
2023/12/26 01:34:08;;;;;;;1999.90;999.90;;;11.30;99.90;;;;;;5035356;28;20172;-73
2023/12/26 01:36:34;;;;;;;1999.90;999.90;;;11.30;99.90;;;;;;5035352;28;20233;-73
2023/12/26 01:38:59;;;;;;;1999.90;999.90;;;11.30;99.90;;;;;;5035405;28;20178;-73
2023/12/26 01:41:25;;;;;;;1999.90;999.90;;;11.20;99.90;;;;;;5035131;28;20190;-73
2023/12/26 01:43:51;;;;;;;1999.90;999.90;;;11.20;99.90;;;;;;5035177;28;20167;-72
2023/12/26 01:46:18;;;;;;;1999.90;999.90;;;11.20;99.90;;;;;;5035219;28;20173;-72
2023/12/26 01:48:47;;;;;;;1999.90;999.90;;;11.10;99.90;;;;;;5035162;28;20412;-72
2023/12/26 01:51:15;;;;;;;1999.90;999.90;;;11.10;99.90;;;;;;5034959;28;20525;-72
2023/12/26 01:53:41;;;;;;;1999.90;999.90;;;11.10;99.90;;;;;;5034971;28;20409;-72
2023/12/26 01:56:08;;;;;;;1999.90;999.90;;;11.00;99.90;;;;;;5034945;28;20484;-73
2023/12/26 01:58:35;;;;;;;1999.90;999.90;;;11.00;99.90;;;;;;5034956;28;20483;-73
2023/12/26 02:01:03;;;;;;;1999.90;999.90;;;11.00;99.90;;;;;;5034610;28;20867;-73
2023/12/26 02:03:28;;;;;;;1999.90;999.90;;;11.00;99.90;;;;;;5034816;28;20421;-73
2023/12/26 02:05:55;;;;;;;1999.90;999.90;;;10.90;99.90;;;;;;5034818;28;20888;-73
2023/12/26 02:08:22;;;;;;;1999.90;999.90;;;10.90;99.90;;;;;;5034753;28;20173;-73
2023/12/26 02:10:48;;;;;;;1999.90;999.90;;;10.70;99.90;;;;;;5034621;28;20903;-73
2023/12/26 02:13:13;;;;;;;1999.90;999.90;;;10.70;99.90;;;;;;5034660;28;20487;-73
2023/12/26 02:15:39;;;;;;;1999.90;999.90;;;10.70;99.90;;;;;;5034534;28;20196;-73
2023/12/26 02:18:05;;;;;;;1999.90;999.90;;;10.60;99.90;;;;;;5034587;28;20620;-74
2023/12/26 02:20:31;;;;;;;1999.90;999.90;;;10.60;99.90;;;;;;5034351;28;20168;-73
2023/12/26 02:22:56;;;;;;;1999.90;999.90;;;10.50;99.90;;;;;;5034353;28;20959;-74
2023/12/26 02:25:23;;;;;;;1999.90;999.90;;;10.50;99.90;;;;;;5034431;28;20182;-72
2023/12/26 02:27:49;;;;;;;1999.90;999.90;;;10.40;99.90;;;;;;5034431;28;20627;-74
2023/12/26 02:30:15;;;;;;;1999.90;999.90;;;10.40;99.90;;;;;;5034331;28;20409;-75
2023/12/26 02:32:42;;;;;;;1999.90;999.90;;;10.30;99.90;;;;;;5034009;28;20729;-73
2023/12/26 02:35:09;;;;;;;1999.90;999.90;;;10.30;99.90;;;;;;5034238;28;20447;-73
2023/12/26 02:37:37;;;;;;;1999.90;999.90;;;10.30;99.90;;;;;;5034308;28;20952;-75
2023/12/26 02:40:03;;;;;;;1999.90;999.90;;;10.30;99.90;;;;;;5034260;28;20407;-75
2023/12/26 02:42:29;;;;;;;1999.90;999.90;;;10.20;99.90;;;;;;5033930;28;20442;-74
2023/12/26 02:44:56;;;;;;;1999.90;999.90;;;10.20;99.90;;;;;;5033990;28;20511;-73
2023/12/26 02:47:23;;;;;;;1999.90;999.90;;;10.20;99.90;;;;;;5034048;28;20406;-72
2023/12/26 02:49:49;;;;;;;1999.90;999.90;;;10.50;99.90;;;;;;5034010;28;20441;-72
2023/12/26 02:52:14;;;;;;;1999.90;999.90;;;10.20;99.90;;;;;;5033713;28;20991;-72
2023/12/26 02:54:40;;;;;;;1999.90;999.90;;;10.20;99.90;;;;;;5033821;28;20457;-72
2023/12/26 02:57:05;;;;;;;1999.90;999.90;;;10.20;99.90;;;;;;5033759;28;20165;-72
2023/12/26 02:59:31;;;;;;;1999.90;999.90;;;10.20;99.90;;;;;;5033874;28;20593;-73
2023/12/26 03:02:00;;;;;;;1999.90;999.90;;;10.10;99.90;;;;;;5033501;28;20209;-71
2023/12/26 03:04:26;;;;;;;1999.90;999.90;;;10.10;99.90;;;;;;5033691;28;20171;-72
2023/12/26 03:06:52;;;;;;;1999.90;999.90;;;10.00;99.90;;;;;;5033698;28;20411;-71
2023/12/26 03:09:18;;;;;;;1999.90;999.90;;;10.00;99.90;;;;;;5033644;28;20420;-70
2023/12/26 03:11:43;;;;;;;1999.90;999.90;;;10.00;99.90;;;;;;5033192;28;20421;-73
2023/12/26 03:14:09;;;;;;;1999.90;999.90;;;10.00;99.90;;;;;;5033415;28;20227;-70
2023/12/26 03:16:34;;;;;;;1999.90;999.90;;;10.00;99.90;;;;;;5033521;28;20537;-70
2023/12/26 03:19:00;;;;;;;1999.90;999.90;;;9.90;99.90;;;;;;5033426;28;20169;-70
2023/12/26 03:21:26;;;;;;;1999.90;999.90;;;9.90;99.90;;;;;;5033007;28;20210;-71
2023/12/26 03:23:51;;;;;;;1999.90;999.90;;;9.90;99.90;;;;;;5033329;28;20545;-72
2023/12/26 03:26:17;;;;;;;1999.90;999.90;;;9.90;99.90;;;;;;5033245;28;20177;-70
2023/12/26 03:28:43;;;;;;;1999.90;999.90;;;9.90;99.90;;;;;;5033213;28;20171;-70
2023/12/26 03:31:09;;;;;;;1999.90;999.90;;;;;;;;;;5032950;28;20285;-70
2023/12/26 03:33:36;;;;;;;1999.90;999.90;;;9.90;99.90;;;;;;5032498;28;20178;-71
2023/12/26 03:36:02;;;;;;;1999.90;999.90;;;9.90;99.90;;;;;;5033034;28;20519;-70
2023/12/26 03:38:28;;;;;;;1999.90;999.90;;;9.90;99.90;;;;;;5033071;28;20400;-71
2023/12/26 03:40:54;;;;;;;1999.90;999.90;;;9.90;99.90;;;;;;5032690;28;20460;-73
2023/12/26 03:43:19;;;;;;;1999.90;999.90;;;9.90;99.90;;;;;;5032903;28;20203;-70
2023/12/26 03:45:49;;;;;;;1999.90;999.90;;;9.90;99.90;;;;;;5033084;28;20286;-70
2023/12/26 03:48:15;;;;;;;1999.90;999.90;;;9.90;99.90;;;;;;5032880;28;20197;-71
2023/12/26 03:50:40;;;;;;;1999.90;999.90;;;9.90;99.90;;;;;;5032512;28;20413;-71
2023/12/26 03:53:06;;;;;;;1999.90;999.90;;;9.90;99.90;;;;;;5032739;28;20187;-71
2023/12/26 03:55:32;;;;;;;1999.90;999.90;;;10.00;99.90;;;;;;5032534;28;20197;-72
2023/12/26 03:57:58;;;;;;;1999.90;999.90;;;10.00;99.90;;;;;;5032793;28;20408;-73
2023/12/26 04:00:24;;;;;;;1999.90;999.90;;;10.00;99.90;;;;;;5032531;28;20425;-71
2023/12/26 04:02:49;;;;;;;1999.90;999.90;;;10.00;99.90;;;;;;5032508;28;20239;-70
2023/12/26 04:05:15;;;;;;;1999.90;999.90;;;10.10;99.90;;;;;;5032599;28;20197;-71
2023/12/26 04:07:41;;;;;;;1999.90;999.90;;;10.10;99.90;;;;;;5032582;28;20166;-71
2023/12/26 04:10:07;;;;;;;1999.90;999.90;;;10.10;99.90;;;;;;5032348;28;20464;-73
2023/12/26 04:12:34;;;;;;;1999.90;999.90;;;10.10;99.90;;;;;;5032143;28;20206;-72
2023/12/26 04:15:00;;;;;;;1999.90;999.90;;;10.10;99.90;;;;;;5032318;28;20449;-71
2023/12/26 04:17:26;;;;;;;1999.90;999.90;;;10.10;99.90;;;;;;5032440;28;20405;-70
2023/12/26 04:19:51;;;;;;;1999.90;999.90;;;10.10;99.90;;;;;;5032377;28;20443;-71
2023/12/26 04:22:17;;;;;;;1999.90;999.90;;;10.10;99.90;;;;;;5031945;28;20282;-70
2023/12/26 04:24:43;;;;;;;1999.90;999.90;;;10.10;99.90;;;;;;5032108;28;20742;-72
2023/12/26 04:27:08;;;;;;;1999.90;999.90;;;10.20;99.90;;;;;;5032237;28;20500;-73
2023/12/26 04:29:34;;;;;;;1999.90;999.90;;;10.10;99.90;;;;;;5032241;28;20181;-71
2023/12/26 04:32:00;;;;;;;1999.90;999.90;;;10.10;99.90;;;;;;5031901;28;20341;-71
2023/12/26 04:34:25;;;;;;;1999.90;999.90;;;10.20;99.90;;;;;;5032014;28;20679;-71
2023/12/26 04:36:51;;;;;;;1999.90;999.90;;;10.20;99.90;;;;;;5032087;28;20196;-74
2023/12/26 04:39:17;;;;;;;1999.90;999.90;;;10.20;99.90;;;;;;5032044;28;20170;-72
2023/12/26 04:41:46;;;;;;;1999.90;999.90;;;10.20;99.90;;;;;;5031760;28;20842;-72
2023/12/26 04:44:11;;;;;;;1999.90;999.90;;;10.30;99.90;;;;;;5031568;28;20973;-71
2023/12/26 04:46:37;;;;;;;1999.90;999.90;;;10.30;99.90;;;;;;5031552;28;20492;-72
2023/12/26 04:49:03;;;;;;;1999.90;999.90;;;10.30;99.90;;;;;;5032010;28;20176;-71
2023/12/26 04:51:30;;;;;;;1999.90;999.90;;;10.30;99.90;;;;;;5031688;28;20200;-71
2023/12/26 04:53:56;;;;;;;1999.90;999.90;;;10.30;99.90;;;;;;5031654;28;20207;-71
2023/12/26 04:56:22;;;;;;;1999.90;999.90;;;10.20;99.90;;;;;;5031850;28;20488;-72
2023/12/26 04:58:49;;;;;;;1999.90;999.90;;;10.20;99.90;;;;;;5031826;28;20202;-74
2023/12/26 05:01:15;;;;;;;1999.90;999.90;;;10.20;99.90;;;;;;5031680;28;20429;-71
2023/12/26 05:03:42;;;;;;;1999.90;999.90;;;10.20;99.90;;;;;;5031742;28;20413;-71
2023/12/26 05:06:08;;;;;;;1999.90;999.90;;;10.20;99.90;;;;;;5031807;28;20476;-71
2023/12/26 05:08:36;;;;;;;1999.90;999.90;;;10.20;99.90;;;;;;5031920;28;20413;-71
2023/12/26 05:11:02;;;;;;;1999.90;999.90;;;10.20;99.90;;;;;;5031685;28;20200;-72
2023/12/26 05:13:28;;;;;;;1999.90;999.90;;;10.20;99.90;;;;;;5034652;28;20412;-75
2023/12/26 05:15:55;;;;;;;1999.90;999.90;;;10.20;99.90;;;;;;5041496;28;20453;-75
2023/12/26 05:18:20;;;;;;;1999.90;999.90;;;10.10;99.90;;;;;;5040307;28;20420;-74
2023/12/26 05:20:46;;;;;;;1999.90;999.90;;;9.90;99.90;;;;;;5036568;28;20874;-73
2023/12/26 05:23:12;;;;;;;1999.90;999.90;;;10.10;99.90;;;;;;5031560;28;20175;-73
2023/12/26 05:25:38;;;;;;;1999.90;999.90;;;10.20;99.90;;;;;;5031551;28;20893;-73
2023/12/26 05:28:04;;;;;;;1999.90;999.90;;;10.20;99.90;;;;;;5030520;28;20183;-73
2023/12/26 05:30:29;;;;;;;1999.90;999.90;;;10.20;99.90;;;;;;5031183;28;20237;-73
2023/12/26 05:32:55;;;;;;;1999.90;999.90;;;10.20;99.90;;;;;;5018501;28;20430;-73
2023/12/26 05:35:20;;;;;;;1999.90;999.90;;;10.20;99.90;;;;;;5011692;28;20236;-73
2023/12/26 05:37:48;;;;;;;1999.90;999.90;;;10.30;99.90;;;;;;5011662;28;20196;-73
2023/12/26 05:40:14;;;;;;;1999.90;999.90;;;10.30;99.90;;;;;;5011768;28;20259;-73
2023/12/26 05:42:39;;;;;;;1999.90;999.90;;;10.30;99.90;;;;;;5011375;28;20517;-74
2023/12/26 05:45:05;;;;;;;1999.90;999.90;;;10.30;99.90;;;;;;5011764;28;20230;-74
2023/12/26 05:47:31;;;;;;;1999.90;999.90;;;10.30;99.90;;;;;;5011713;28;20220;-73
2023/12/26 05:49:58;;;;;;;1999.90;999.90;;;10.40;99.90;;;;;;5011680;28;20415;-73
2023/12/26 05:52:25;;;;;;;1999.90;999.90;;;10.40;99.90;;;;;;5011302;28;20218;-73
2023/12/26 05:54:50;;;;;;;1999.90;999.90;;;10.40;99.90;;;;;;5011506;28;20493;-73
2023/12/26 05:57:16;;;;;;;1999.90;999.90;;;10.40;99.90;;;;;;5013893;28;20454;-73
2023/12/26 05:59:42;;;;;;;1999.90;999.90;;;10.40;99.90;;;;;;5015232;28;20583;-73
2023/12/26 06:02:07;;;;;;;1999.90;999.90;;;10.50;99.90;;;;;;5014826;28;20240;-74
2023/12/26 06:04:33;;;;;;;1999.90;999.90;;;10.50;99.90;;;;;;5015022;28;20187;-73
2023/12/26 06:06:58;;;;;;;1999.90;999.90;;;10.50;99.90;;;;;;5014951;28;20190;-73
2023/12/26 06:09:26;;;;;;;1999.90;999.90;;;10.50;99.90;;;;;;5015064;28;20202;-74
2023/12/26 06:11:52;;;;;;;1999.90;999.90;;;10.50;99.90;;;;;;5014711;28;20242;-74
2023/12/26 06:14:17;;;;;;;1999.90;999.90;;;10.50;99.90;;;;;;5014846;28;20761;-73
2023/12/26 06:16:43;;;;;;;1999.90;999.90;;;10.50;99.90;;;;;;5014920;28;20182;-74
2023/12/26 06:19:09;;;;;;;1999.90;999.90;;;10.50;99.90;;;;;;5015122;28;20201;-74
2023/12/26 06:21:35;;;;;;;1999.90;999.90;;;10.50;99.90;;;;;;5014641;28;20682;-73
2023/12/26 06:24:01;;;;;;;1999.90;999.90;;;10.50;99.90;;;;;;5014670;28;20415;-73
2023/12/26 06:26:26;;;;;;;1999.90;999.90;;;10.50;99.90;;;;;;5014731;28;20989;-74
2023/12/26 06:28:52;;;;;;;1999.90;999.90;;;10.50;99.90;;;;;;5014656;28;20223;-74
2023/12/26 06:31:18;;;;;;;1999.90;999.90;;;10.50;99.90;;;;;;5014384;28;20200;-74
2023/12/26 06:33:44;;;;;;;1999.90;999.90;;;10.50;99.90;;;;;;5014504;28;20171;-74
2023/12/26 06:36:10;;;;;;;1999.90;999.90;;;10.50;99.90;;;;;;5014345;28;20465;-74
2023/12/26 06:38:36;;;;;;;1999.90;999.90;;;10.50;99.90;;;;;;5014459;28;20222;-74
2023/12/26 06:41:02;;;;;;;1999.90;999.90;;;10.50;99.90;;;;;;5014150;28;20199;-74
2023/12/26 06:43:28;;;;;;;1999.90;999.90;;;10.50;99.90;;;;;;5014414;28;20411;-74
2023/12/26 06:45:54;;;;;;;1999.90;999.90;;;10.50;99.90;;;;;;5014253;28;20410;-74
2023/12/26 06:48:19;;;;;;;1999.90;999.90;;;10.50;99.90;;;;;;5014312;28;20451;-73
2023/12/26 06:50:45;;;;;;;1999.90;999.90;;;10.40;99.90;;;;;;5013882;28;20526;-73
2023/12/26 06:53:11;;;;;;;1999.90;999.90;;;10.40;99.90;;;;;;5014145;28;20258;-74
2023/12/26 06:55:37;;;;;;;1999.90;999.90;;;10.50;99.90;;;;;;5014058;28;20512;-74
2023/12/26 06:58:04;;;;;;;1999.90;999.90;;;10.50;99.90;;;;;;5014098;28;20610;-74
2023/12/26 07:00:29;;;;;;;1999.90;999.90;;;10.60;99.90;;;;;;5013800;28;20181;-74
2023/12/26 07:02:55;;;;;;;1999.90;999.90;;;10.60;99.90;;;;;;5013844;28;20435;-73
2023/12/26 07:05:21;;;;;;;1999.90;999.90;;;10.60;99.90;;;;;;5013859;28;20179;-74
2023/12/26 07:07:47;;;;;;;1999.90;999.90;;;10.60;99.90;;;;;;5012989;28;20410;-74
2023/12/26 07:10:13;;;;;;;1999.90;999.90;;;10.60;99.90;;;;;;5014016;28;20267;-74
2023/12/26 07:12:39;;;;;;;1999.90;999.90;;;10.60;99.90;;;;;;5013562;28;20517;-74
2023/12/26 07:15:08;;;;;;;1999.90;999.90;;;10.60;99.90;;;;;;5013656;28;20207;-74
2023/12/26 07:17:33;;;;;;;1999.90;999.90;;;10.60;99.90;;;;;;5013762;28;20237;-73
2023/12/26 07:19:59;;;;;;;1999.90;999.90;;;10.60;99.90;;;;;;5013589;28;20458;-74
2023/12/26 07:22:25;;;;;;;1999.90;999.90;;;10.50;99.90;;;;;;5013278;28;20236;-74
2023/12/26 07:24:50;;;;;;;1999.90;999.90;;;10.50;99.90;;;;;;5028191;28;20193;-74
2023/12/26 07:27:16;;;;;;;1999.90;999.90;;;10.50;99.90;;;;;;5033161;28;20204;-74
2023/12/26 07:29:41;;;;;;;1999.90;999.90;;;10.50;99.90;;;;;;5014727;28;20188;-71
2023/12/26 07:32:07;;;;;;;1999.90;999.90;;;10.50;99.90;;;;;;5013178;28;20210;-72
2023/12/26 07:34:33;;;;;;;1999.90;999.90;;;10.60;99.90;;;;;;5013224;28;20206;-72
2023/12/26 07:36:58;;;;;;;1999.90;999.90;;;10.60;99.90;;;;;;5013390;28;20175;-73
2023/12/26 07:39:24;;;;;;;1999.90;999.90;;;10.50;99.90;;;;;;5013286;28;20180;-75
2023/12/26 07:41:49;;;;;;;1999.90;999.90;;;10.50;99.90;;;;;;5013018;28;20261;-72
2023/12/26 07:44:15;;;;;;;1999.90;999.90;;;10.50;99.90;;;;;;5013145;28;20179;-72
2023/12/26 07:46:41;;;;;;;1999.90;999.90;;;10.60;99.90;;;;;;5013202;28;20175;-72
2023/12/26 07:49:08;;;;;;;1999.90;999.90;;;10.50;99.90;;;;;;5013293;28;20238;-72
2023/12/26 07:51:33;;;;;;;1999.90;999.90;;;10.50;99.90;;;;;;5012945;28;20429;-72
2023/12/26 07:54:02;;;;;;;1999.90;999.90;;;10.50;99.90;;;;;;5013065;28;20407;-73
2023/12/26 07:56:28;;;;;;;1999.90;999.90;;;10.60;99.90;;;;;;5013184;28;20251;-73
2023/12/26 07:58:55;;;;;;;1999.90;999.90;;;10.50;99.90;;;;;;5013403;28;20411;-73
2023/12/26 08:01:21;;;;;;;1999.90;999.90;;;10.50;99.90;;;;;;5012765;28;20199;-75
2023/12/26 08:03:47;;;;;;;1999.90;999.90;;;10.60;99.90;;;;;;5012822;28;20779;-74
2023/12/26 08:06:12;;;;;;;1999.90;999.90;;;10.60;99.90;;;;;;5012851;28;20412;-74
2023/12/26 08:08:38;;;;;;;1999.90;999.90;;;10.60;99.90;;;;;;5012820;28;20202;-74
2023/12/26 08:11:04;;;;;;;1999.90;999.90;;;10.60;99.90;;;;;;5012506;28;20195;-74
2023/12/26 08:13:29;;;;;;;1999.90;999.90;;;10.60;99.90;;;;;;5012673;28;20226;-74
2023/12/26 08:15:55;;;;;;;1999.90;999.90;;;10.60;99.90;;;;;;5012644;28;20238;-74
2023/12/26 08:18:21;;;;;;;1999.90;999.90;;;10.60;99.90;;;;;;5012597;28;20191;-74
2023/12/26 08:20:47;;;;;;;1999.90;999.90;;;10.70;99.90;;;;;;5012088;28;20233;-74
2023/12/26 08:23:13;;;;;;;1999.90;999.90;;;10.60;99.90;;;;;;5012505;28;20421;-74
2023/12/26 08:25:39;;;;;;;1999.90;999.90;;;10.60;99.90;;;;;;5012601;28;20773;-73
2023/12/26 08:28:06;;;;;;;1999.90;999.90;;;10.60;99.90;;;;;;5012476;28;20184;-74
2023/12/26 08:30:32;;;;;;;1999.90;999.90;;;10.60;99.90;;;;;;5012231;28;20447;-74
2023/12/26 08:32:58;;;;;;;1999.90;999.90;;;10.60;99.90;;;;;;5012311;28;20993;-74
2023/12/26 08:35:23;;;;;;;1999.90;999.90;;;10.60;99.90;;;;;;5012245;28;20553;-74
2023/12/26 08:37:49;;;;;;;1999.90;999.90;;;10.60;99.90;;;;;;5012367;28;20166;-74
2023/12/26 08:40:15;;;;;;;1999.90;999.90;;;10.60;99.90;;;;;;5012314;28;20816;-74
2023/12/26 08:42:40;;;;;;;1999.90;999.90;;;10.60;99.90;;;;;;5012028;28;20223;-74
2023/12/26 08:45:06;;;;;;;1999.90;999.90;;;10.60;99.90;;;;;;5011993;28;20176;-74
2023/12/26 08:47:32;;;;;;;1999.90;999.90;;;10.60;99.90;;;;;;5013393;28;20176;-74
2023/12/26 08:49:59;;;;;;;1999.90;999.90;;;10.60;99.90;;;;;;5031869;28;20965;-73
2023/12/26 08:52:25;;;;;;;1999.90;999.90;;;10.60;99.90;;;;;;5015807;28;20196;-73
2023/12/26 08:54:51;;;;;;;1999.90;999.90;;;10.60;99.90;;;;;;5012041;28;20461;-74
2023/12/26 08:57:16;;;;;;;1999.90;999.90;;;10.70;99.90;;;;;;5023352;28;20422;-74
2023/12/26 08:59:42;;;;;;;1999.90;999.90;;;10.70;99.90;;;;;;5031668;28;20202;-74
2023/12/26 09:02:07;;;;;;;1999.90;999.90;;;10.70;99.90;;;;;;5031493;28;20265;-73
2023/12/26 09:04:33;;;;;;;1999.90;999.90;;;10.70;99.90;;;;;;5031791;28;20182;-74
2023/12/26 09:06:59;;;;;;;1999.90;999.90;;;10.80;99.90;;;;;;5031770;28;20206;-74
2023/12/26 09:09:26;;;;;;;1999.90;999.90;;;10.80;99.90;;;;;;5031854;28;20196;-73
2023/12/26 09:11:53;;;;;;;1999.90;999.90;;;10.80;99.90;;;;;;5031499;28;20434;-73
2023/12/26 09:14:19;;;;;;;1999.90;999.90;;;10.80;99.90;;;;;;5031493;28;21004;-74
2023/12/26 09:16:45;;;;;;;1999.90;999.90;;;10.80;99.90;;;;;;5031160;28;20421;-74
2023/12/26 09:19:11;;;;;;;1999.90;999.90;;;10.80;99.90;;;;;;5031733;28;20269;-74
2023/12/26 09:21:37;;;;;;;1999.90;999.90;;;10.90;99.90;;;;;;5031193;28;20691;-73
2023/12/26 09:24:03;;;;;;;1999.90;999.90;;;10.90;99.90;;;;;;5031353;28;20497;-74
2023/12/26 09:26:29;;;;;;;1999.90;999.90;;;10.90;99.90;;;;;;5031593;28;20185;-73
2023/12/26 09:28:55;;;;;;;1999.90;999.90;;;10.80;99.90;;;;;;5031517;28;20254;-74
2023/12/26 09:31:21;;;;;;;1999.90;999.90;;;10.90;99.90;;;;;;5032204;28;20445;-74
2023/12/26 09:33:46;;;;;;;1999.90;999.90;;;10.80;99.90;;;;;;5035408;28;20198;-74
2023/12/26 09:36:12;;;;;;;1999.90;999.90;;;10.80;99.90;;;;;;5035310;28;20555;-73
2023/12/26 09:38:38;;;;;;;1999.90;999.90;;;10.80;99.90;;;;;;5032721;28;20182;-75
2023/12/26 09:41:05;;;;;;;1999.90;999.90;;;10.90;99.90;;;;;;5034568;28;20550;-74
2023/12/26 09:43:31;;;;;;;1999.90;999.90;;;10.90;99.90;;;;;;5034973;28;20422;-74
2023/12/26 09:45:57;;;;;;;1999.90;999.90;;;10.90;99.90;;;;;;5023510;28;20431;-74
2023/12/26 09:48:24;;;;;;;1999.90;999.90;;;11.10;99.90;;;;;;5015365;28;20179;-74
2023/12/26 09:50:53;;;;;;;1999.90;999.90;;;10.80;99.90;;;;;;5015127;28;20230;-74
2023/12/26 09:53:23;;;;;;;1999.90;999.90;;;11.00;99.90;;;;;;5015212;28;20505;-75
2023/12/26 09:55:50;;;;;;;1999.90;999.90;;;11.00;99.90;;;;;;5029667;28;20453;-75
2023/12/26 09:58:17;;;;;;;1999.90;999.90;;;10.90;99.90;;;;;;5020804;28;20442;-74
2023/12/26 10:00:45;;;;;;;1999.90;999.90;;;11.10;99.90;;;;;;5014759;28;20498;-74
2023/12/26 10:03:10;;;;;;;1999.90;999.90;;;10.90;99.90;;;;;;5014990;28;20407;-74
2023/12/26 10:05:36;;;;;;;1999.90;999.90;;;11.00;99.90;;;;;;5015006;28;20979;-74
2023/12/26 10:08:02;;;;;;;1999.90;999.90;;;11.10;99.90;;;;;;5014959;28;20237;-74
2023/12/26 10:10:28;;;;;;;1999.90;999.90;;;11.20;99.90;;;;;;5023314;28;20186;-73
2023/12/26 10:12:54;;;;;;;1999.90;999.90;;;11.30;99.90;;;;;;5034385;28;20642;-73
2023/12/26 10:15:20;;;;;;;1999.90;999.90;;;11.30;99.90;;;;;;5034412;28;20469;-73
2023/12/26 10:17:46;;;;;;;1999.90;999.90;;;11.40;99.90;;;;;;5034546;28;20254;-73
2023/12/26 10:20:14;;;;;;;1999.90;999.90;;;11.50;99.90;;;;;;5034514;28;20556;-73
2023/12/26 10:22:44;;;;;;;1999.90;999.90;;;11.40;99.90;;;;;;5034098;28;20587;-74
2023/12/26 10:25:11;;;;;;;1999.90;999.90;;;11.30;99.90;;;;;;5034290;28;20897;-74
2023/12/26 10:27:38;;;;;;;1999.90;999.90;;;11.20;99.90;;;;;;5034363;28;20414;-74
2023/12/26 10:30:04;;;;;;;1999.90;999.90;;;11.10;90.90;;;;;;5034454;28;20843;-74
2023/12/26 10:32:30;;;;;;;1999.90;999.90;;;11.10;84.70;;;;;;5033824;28;20520;-73
2023/12/26 10:34:56;;;;;;;1999.90;999.90;;;11.00;83.40;;;;;;5034051;28;20541;-74
2023/12/26 10:37:22;;;;;;;1999.90;999.90;;;11.00;89.90;;;;;;5034022;28;21048;-74
2023/12/26 10:39:49;;;;;;;1999.90;999.90;;;11.00;89.90;;;;;;5034081;28;20171;-74
2023/12/26 10:42:18;;;;;;;1999.90;999.90;;;11.10;88.50;;;;;;5033804;28;20433;-73
2023/12/26 10:44:58;;;;;;;1999.90;999.90;;;11.10;87.10;;;;;;5034024;28;20923;-74
2023/12/26 10:47:27;;;;;;;1999.90;999.90;;;11.20;83.30;;;;;;5034009;28;20424;-74
2023/12/26 10:49:56;;;;;;;1999.90;999.90;;;11.30;86.50;;;;;;5034050;28;20503;-73
2023/12/26 10:52:24;;;;;;;1999.90;999.90;;;11.20;81.30;;;;;;5033529;28;20941;-74
2023/12/26 10:54:51;;;;;;;1999.90;999.90;;;11.10;82.20;;;;;;5033576;28;20465;-74
2023/12/26 10:57:18;;;;;;;1999.90;999.90;;;11.10;86.70;;;;;;5033468;28;20466;-74
2023/12/26 13:51:27;;;;;;;1999.90;999.90;;;11.20;57.00;;;;;;5029122;28;20405;-75
2023/12/26 13:53:53;;;;;;;1999.90;999.90;;;11.00;68.10;;;;;;5035123;28;20401;-74
2023/12/26 13:56:19;;;;;;;1999.90;999.90;;;10.90;69.70;;;;;;5035077;28;20492;-75
2023/12/26 13:58:45;;;;;;;1999.90;999.90;;;10.70;68.10;;;;;;5035139;28;20457;-75
2023/12/26 14:01:12;;;;;;;1999.90;999.90;;;10.70;68.80;;;;;;5034734;28;20223;-73
2023/12/26 14:03:37;;;;;;;1999.90;999.90;;;10.60;67.80;;;;;;5035038;28;20415;-73
2023/12/26 14:06:03;;;;;;;1999.90;999.90;;;10.40;68.20;;;;;;5034842;28;20425;-73
2023/12/26 14:08:28;;;;;;;1999.90;999.90;;;10.60;70.10;;;;;;5034978;28;20258;-73
2023/12/26 14:10:54;;;;;;;1999.90;999.90;;;10.60;82.30;;;;;;5017002;28;20176;-73
2023/12/26 14:13:19;;;;;;;1999.90;999.90;;;10.50;64.90;;;;;;5014957;28;20263;-71
2023/12/26 14:15:45;;;;;;;1999.90;999.90;;;10.50;64.00;;;;;;5015006;28;20199;-71
2023/12/26 14:18:10;;;;;;;1999.90;999.90;;;10.50;64.70;;;;;;5014572;28;20172;-71
2023/12/26 14:20:36;;;;;;;1999.90;999.90;;;10.50;67.00;;;;;;5014565;28;20251;-72
2023/12/26 14:23:02;;;;;;;1999.90;999.90;;;10.50;68.20;;;;;;5014780;28;20278;-70
2023/12/26 14:25:28;;;;;;;1999.90;999.90;;;10.40;69.10;;;;;;5014851;28;20175;-71
2023/12/26 14:27:53;;;;;;;1999.90;999.90;;;10.40;72.90;;;;;;5014727;28;20183;-70
2023/12/26 14:30:19;;;;;;;1999.90;999.90;;;10.50;73.60;;;;;;5014598;28;20494;-70
2023/12/26 14:32:45;;;;;;;1999.90;999.90;;;10.50;72.50;;;;;;5014287;28;20196;-71
2023/12/26 14:35:10;;;;;;;1999.90;999.90;;;10.50;79.30;;;;;;5014444;28;20203;-73
2023/12/26 14:37:36;;;;;;;1999.90;999.90;;;10.50;77.20;;;;;;5014773;28;20250;-70
2023/12/26 14:40:01;;;;;;;1999.90;999.90;;;10.30;73.10;;;;;;5014447;28;20176;-70
2023/12/26 14:42:27;;;;;;;1999.90;999.90;;;10.40;73.80;;;;;;5014204;28;20195;-71
2023/12/26 14:44:52;;;;;;;1999.90;999.90;;;10.40;74.80;;;;;;5014298;28;20175;-73
2023/12/26 14:47:18;;;;;;;1999.90;999.90;;;10.40;72.90;;;;;;5014291;28;20207;-71